sensor_id;sensor_type;location;lat;lon;timestamp;pressure;altitude;pressure_sealevel;temperature;humidity
15405;BME280;7801;48.124;11.590;2022-12-11T00:01:32;94547.12;;;0.75;90.81
15405;BME280;7801;48.124;11.590;2022-12-11T00:03:58;94558.81;;;0.67;91.13
15405;BME280;7801;48.124;11.590;2022-12-11T00:06:24;94550.78;;;0.74;90.62
15405;BME280;7801;48.124;11.590;2022-12-11T00:08:52;94557.56;;;0.75;89.65
15405;BME280;7801;48.124;11.590;2022-12-11T00:11:21;94556.03;;;0.79;90.38
15405;BME280;7801;48.124;11.590;2022-12-11T00:13:48;94559.84;;;0.61;91.13
15405;BME280;7801;48.124;11.590;2022-12-11T00:16:17;94559.91;;;0.72;91.00
15405;BME280;7801;48.124;11.590;2022-12-11T00:18:45;94564.72;;;0.53;91.44
15405;BME280;7801;48.124;11.590;2022-12-11T00:21:15;94562.44;;;0.61;90.92
15405;BME280;7801;48.124;11.590;2022-12-11T00:23:40;94560.88;;;0.60;91.04
15405;BME280;7801;48.124;11.590;2022-12-11T00:26:12;94568.25;;;0.74;90.23
15405;BME280;7801;48.124;11.590;2022-12-11T00:28:40;94560.44;;;0.74;89.66
15405;BME280;7801;48.124;11.590;2022-12-11T00:31:07;94561.44;;;0.67;90.56
15405;BME280;7801;48.124;11.590;2022-12-11T00:33:35;94556.69;;;0.64;90.46
15405;BME280;7801;48.124;11.590;2022-12-11T00:36:03;94554.00;;;0.49;90.98
15405;BME280;7801;48.124;11.590;2022-12-11T00:38:29;94555.47;;;0.72;89.55
15405;BME280;7801;48.124;11.590;2022-12-11T00:40:58;94560.44;;;0.74;89.08
15405;BME280;7801;48.124;11.590;2022-12-11T00:43:25;94562.16;;;0.58;90.28
15405;BME280;7801;48.124;11.590;2022-12-11T00:45:51;94564.13;;;0.46;90.45
15405;BME280;7801;48.124;11.590;2022-12-11T00:48:18;94560.03;;;0.55;89.80
15405;BME280;7801;48.124;11.590;2022-12-11T00:50:46;94558.81;;;0.67;89.57
15405;BME280;7801;48.124;11.590;2022-12-11T00:53:14;94562.59;;;0.82;89.33
15405;BME280;7801;48.124;11.590;2022-12-11T00:55:42;94561.13;;;0.64;89.50
15405;BME280;7801;48.124;11.590;2022-12-11T00:58:10;94559.28;;;0.59;88.94
15405;BME280;7801;48.124;11.590;2022-12-11T01:00:39;94556.69;;;0.64;89.14
15405;BME280;7801;48.124;11.590;2022-12-11T01:03:06;94563.44;;;0.55;88.85
15405;BME280;7801;48.124;11.590;2022-12-11T01:05:32;94560.81;;;0.55;89.03
15405;BME280;7801;48.124;11.590;2022-12-11T01:08:00;94564.72;;;0.53;89.72
15405;BME280;7801;48.124;11.590;2022-12-11T01:10:27;94569.84;;;0.43;89.78
15405;BME280;7801;48.124;11.590;2022-12-11T01:13:03;94574.44;;;0.62;88.71
15405;BME280;7801;48.124;11.590;2022-12-11T01:15:33;94577.56;;;0.64;88.13
15405;BME280;7801;48.124;11.590;2022-12-11T01:17:59;94578.50;;;0.48;88.43
15405;BME280;7801;48.124;11.590;2022-12-11T01:20:28;94580.84;;;0.50;88.35
15405;BME280;7801;48.124;11.590;2022-12-11T01:22:54;94586.56;;;0.47;88.91
15405;BME280;7801;48.124;11.590;2022-12-11T01:25:25;94585.78;;;0.46;89.10
15405;BME280;7801;48.124;11.590;2022-12-11T01:27:54;94592.56;;;0.47;89.36
15405;BME280;7801;48.124;11.590;2022-12-11T01:30:24;94586.56;;;0.47;89.40
15405;BME280;7801;48.124;11.590;2022-12-11T01:32:51;94586.91;;;0.55;89.01
15405;BME280;7801;48.124;11.590;2022-12-11T01:35:18;94598.09;;;0.24;89.75
15405;BME280;7801;48.124;11.590;2022-12-11T01:37:44;94602.25;;;0.20;90.05
15405;BME280;7801;48.124;11.590;2022-12-11T01:40:15;94604.47;;;0.65;89.10
15405;BME280;7801;48.124;11.590;2022-12-11T01:42:42;94605.47;;;0.59;88.36
15405;BME280;7801;48.124;11.590;2022-12-11T01:45:31;94607.13;;;0.43;88.73
15405;BME280;7801;48.124;11.590;2022-12-11T01:48:20;94605.47;;;0.59;88.54
15405;BME280;7801;48.124;11.590;2022-12-11T01:51:05;94602.00;;;0.80;88.07
15405;BME280;7801;48.124;11.590;2022-12-11T01:53:55;94602.16;;;0.68;88.36
15405;BME280;7801;48.124;11.590;2022-12-11T01:56:23;94606.81;;;0.66;88.25
15405;BME280;7801;48.124;11.590;2022-12-11T01:58:53;94614.97;;;0.43;89.27
15405;BME280;7801;48.124;11.590;2022-12-11T02:01:25;94618.59;;;0.37;89.07
15405;BME280;7801;48.124;11.590;2022-12-11T02:03:58;94613.72;;;0.19;89.84
15405;BME280;7801;48.124;11.590;2022-12-11T02:06:38;94613.13;;;0.12;90.35
15405;BME280;7801;48.124;11.590;2022-12-11T02:09:08;94605.66;;;0.52;89.33
15405;BME280;7801;48.124;11.590;2022-12-11T02:12:00;94607.25;;;0.53;89.04
15405;BME280;7801;48.124;11.590;2022-12-11T02:17:42;94600.16;;;0.49;89.66
15405;BME280;7801;48.124;11.590;2022-12-11T02:23:56;94587.34;;;0.47;89.12
15405;BME280;7801;48.124;11.590;2022-12-11T02:30:06;94591.09;;;0.56;88.74
15405;BME280;7801;48.124;11.590;2022-12-11T02:32:54;94587.31;;;0.42;88.68
15405;BME280;7801;48.124;11.590;2022-12-11T02:35:39;94590.75;;;0.48;88.27
15405;BME280;7801;48.124;11.590;2022-12-11T02:38:17;94588.16;;;0.48;88.45
15405;BME280;7801;48.124;11.590;2022-12-11T02:40:46;94583.09;;;0.36;89.44
15405;BME280;7801;48.124;11.590;2022-12-11T02:43:15;94588.50;;;0.56;89.07
15405;BME280;7801;48.124;11.590;2022-12-11T02:45:47;94582.84;;;0.69;88.89
15405;BME280;7801;48.124;11.590;2022-12-11T02:48:16;94586.06;;;0.50;88.88
15405;BME280;7801;48.124;11.590;2022-12-11T02:50:45;94589.13;;;0.42;89.94
15405;BME280;7801;48.124;11.590;2022-12-11T02:53:25;94583.31;;;0.61;88.50
15405;BME280;7801;48.124;11.590;2022-12-11T02:55:58;94594.28;;;0.63;87.98
15405;BME280;7801;48.124;11.590;2022-12-11T02:58:29;94589.59;;;0.65;87.92
15405;BME280;7801;48.124;11.590;2022-12-11T03:00:57;94597.53;;;0.49;88.05
15405;BME280;7801;48.124;11.590;2022-12-11T03:03:24;94596.72;;;0.43;88.51
15405;BME280;7801;48.124;11.590;2022-12-11T03:05:51;94598.38;;;0.54;87.43
15405;BME280;7801;48.124;11.590;2022-12-11T03:08:19;94591.63;;;0.58;87.77
15405;BME280;7801;48.124;11.590;2022-12-11T03:10:45;94599.38;;;0.48;88.64
15405;BME280;7801;48.124;11.590;2022-12-11T03:13:15;94604.69;;;0.31;88.37
15405;BME280;7801;48.124;11.590;2022-12-11T03:18:43;94598.69;;;0.31;88.50
15405;BME280;7801;48.124;11.590;2022-12-11T03:21:23;94603.78;;;0.16;88.14
15405;BME280;7801;48.124;11.590;2022-12-11T03:24:01;94606.56;;;0.36;87.97
15405;BME280;7801;48.124;11.590;2022-12-11T03:26:41;94608.44;;;0.14;87.84
15405;BME280;7801;48.124;11.590;2022-12-11T03:29:17;94608.16;;;0.10;87.94
15405;BME280;7801;48.124;11.590;2022-12-11T03:31:49;94606.03;;;0.34;88.12
15405;BME280;7801;48.124;11.590;2022-12-11T03:34:25;94603.59;;;0.54;86.39
15405;BME280;7801;48.124;11.590;2022-12-11T03:36:56;94612.72;;;0.52;85.62
15405;BME280;7801;48.124;11.590;2022-12-11T03:39:30;94616.53;;;0.44;86.43
15405;BME280;7801;48.124;11.590;2022-12-11T03:42:02;94610.22;;;0.08;86.91
15405;BME280;7801;48.124;11.590;2022-12-11T03:44:43;94614.22;;;0.48;86.48
15405;BME280;7801;48.124;11.590;2022-12-11T03:47:14;94619.81;;;0.29;85.84
15405;BME280;7801;48.124;11.590;2022-12-11T03:49:49;94609.81;;;0.48;85.73
15405;BME280;7801;48.124;11.590;2022-12-11T03:52:22;94614.00;;;0.49;86.41
15405;BME280;7801;48.124;11.590;2022-12-11T03:55:03;94613.16;;;0.44;86.39
15405;BME280;7801;48.124;11.590;2022-12-11T03:57:35;94622.31;;;0.46;85.86
15405;BME280;7801;48.124;11.590;2022-12-11T04:00:22;94618.09;;;0.40;86.32
15405;BME280;7801;48.124;11.590;2022-12-11T04:02:55;94616.00;;;0.42;86.08
15405;BME280;7801;48.124;11.590;2022-12-11T04:05:49;94613.37;;;0.37;85.89
15405;BME280;7801;48.124;11.590;2022-12-11T04:08:26;94618.09;;;0.40;84.50
15405;BME280;7801;48.124;11.590;2022-12-11T04:10:53;94606.66;;;0.46;84.85
15405;BME280;7801;48.124;11.590;2022-12-11T04:13:40;94601.97;;;0.48;85.04
15405;BME280;7801;48.124;11.590;2022-12-11T04:16:07;94609.81;;;0.48;85.25
15405;BME280;7801;48.124;11.590;2022-12-11T04:18:34;94608.94;;;0.38;85.45
15405;BME280;7801;48.124;11.590;2022-12-11T04:21:20;94605.00;;;0.35;85.31
15405;BME280;7801;48.124;11.590;2022-12-11T04:24:06;94604.47;;;0.33;85.02
15405;BME280;7801;48.124;11.590;2022-12-11T04:26:43;94607.59;;;0.35;85.06
15405;BME280;7801;48.124;11.590;2022-12-11T04:29:15;94608.97;;;0.43;84.63
15405;BME280;7801;48.124;11.590;2022-12-11T04:31:42;94607.75;;;0.50;84.09
15405;BME280;7801;48.124;11.590;2022-12-11T04:34:07;94611.00;;;0.36;84.41
15405;BME280;7801;48.124;11.590;2022-12-11T04:36:34;94609.50;;;0.45;84.18
15405;BME280;7801;48.124;11.590;2022-12-11T04:39:04;94607.13;;;0.43;84.55
15405;BME280;7801;48.124;11.590;2022-12-11T04:41:30;94608.62;;;0.07;84.75
15405;BME280;7801;48.124;11.590;2022-12-11T04:43:57;94610.75;;;0.10;84.53
15405;BME280;7801;48.124;11.590;2022-12-11T04:46:28;94619.56;;;0.31;84.40
15405;BME280;7801;48.124;11.590;2022-12-11T04:48:56;94616.69;;;0.59;83.31
15405;BME280;7801;48.124;11.590;2022-12-11T04:51:23;94608.78;;;0.22;83.80
15405;BME280;7801;48.124;11.590;2022-12-11T04:53:50;94609.63;;;0.28;82.95
15405;BME280;7801;48.124;11.590;2022-12-11T04:56:15;94615.44;;;0.35;83.03
15405;BME280;7801;48.124;11.590;2022-12-11T04:58:43;94614.84;;;0.28;83.02
15405;BME280;7801;48.124;11.590;2022-12-11T05:01:16;94605.31;;;0.39;82.23
15405;BME280;7801;48.124;11.590;2022-12-11T05:03:44;94606.66;;;0.46;81.88
15405;BME280;7801;48.124;11.590;2022-12-11T05:06:32;94601.34;;;0.36;81.29
15405;BME280;7801;48.124;11.590;2022-12-11T05:09:02;94603.28;;;0.19;81.33
15405;BME280;7801;48.124;11.590;2022-12-11T05:11:28;94602.69;;;0.39;80.60
15405;BME280;7801;48.124;11.590;2022-12-11T05:13:54;94599.69;;;0.25;80.37
15405;BME280;7801;48.124;11.590;2022-12-11T05:16:20;94592.56;;;0.47;79.69
15405;BME280;7801;48.124;11.590;2022-12-11T05:18:46;94601.00;;;0.27;80.94
15405;BME280;7801;48.124;11.590;2022-12-11T05:21:23;94592.19;;;0.33;81.70
15405;BME280;7801;48.124;11.590;2022-12-11T05:23:48;94589.78;;;0.27;82.98
15405;BME280;7801;48.124;11.590;2022-12-11T05:26:17;94593.03;;;0.39;82.31
15405;BME280;7801;48.124;11.590;2022-12-11T05:28:44;94599.38;;;0.48;81.30
15405;BME280;7801;48.124;11.590;2022-12-11T05:31:17;94598.69;;;0.31;82.69
15405;BME280;7801;48.124;11.590;2022-12-11T05:33:46;94589.41;;;0.40;82.10
15405;BME280;7801;48.124;11.590;2022-12-11T05:38:49;94592.69;;;0.30;81.56
15405;BME280;7801;48.124;11.590;2022-12-11T05:41:18;94595.19;;;0.47;80.36
15405;BME280;7801;48.124;11.590;2022-12-11T05:44:06;94587.84;;;0.44;79.13
15405;BME280;7801;48.124;11.590;2022-12-11T05:46:33;94593.12;;;0.49;78.98
15405;BME280;7801;48.124;11.590;2022-12-11T05:49:00;94599.91;;;0.50;77.40
15405;BME280;7801;48.124;11.590;2022-12-11T05:51:27;94598.09;;;0.24;78.53
15405;BME280;7801;48.124;11.590;2022-12-11T05:53:55;94592.19;;;0.33;77.31
15405;BME280;7801;48.124;11.590;2022-12-11T05:56:31;94603.22;;;0.41;77.77
15405;BME280;7801;48.124;11.590;2022-12-11T05:59:00;94600.34;;;0.42;77.87
15405;BME280;7801;48.124;11.590;2022-12-11T06:01:41;94589.78;;;0.27;77.96
15405;BME280;7801;48.124;11.590;2022-12-11T06:04:12;94595.91;;;0.43;76.74
15405;BME280;7801;48.124;11.590;2022-12-11T06:06:39;94599.69;;;0.25;76.45
15405;BME280;7801;48.124;11.590;2022-12-11T06:09:05;94597.31;;;0.23;76.89
15405;BME280;7801;48.124;11.590;2022-12-11T06:11:35;94594.94;;;0.22;77.26
15405;BME280;7801;48.124;11.590;2022-12-11T06:14:03;94592.09;;;0.23;77.59
15405;BME280;7801;48.124;11.590;2022-12-11T06:16:30;94589.00;;;0.26;78.91
15405;BME280;7801;48.124;11.590;2022-12-11T06:18:57;94588.31;;;0.36;79.00
15405;BME280;7801;48.124;11.590;2022-12-11T06:21:27;94581.97;;;0.27;78.21
15405;BME280;7801;48.124;11.590;2022-12-11T06:23:57;94583.97;;;0.47;77.76
15405;BME280;7801;48.124;11.590;2022-12-11T06:26:24;94584.75;;;0.47;77.64
15405;BME280;7801;48.124;11.590;2022-12-11T06:28:51;94591.50;;;0.43;77.98
15405;BME280;7801;48.124;11.590;2022-12-11T06:31:18;94582.56;;;0.34;77.90
15405;BME280;7801;48.124;11.590;2022-12-11T06:33:50;94591.81;;;0.20;78.99
15405;BME280;7801;48.124;11.590;2022-12-11T06:36:21;94591.22;;;0.40;77.80
15405;BME280;7801;48.124;11.590;2022-12-11T06:38:49;94593.38;;;0.21;79.17
15405;BME280;7801;48.124;11.590;2022-12-11T06:41:16;94593.72;;;0.29;77.89
15405;BME280;7801;48.124;11.590;2022-12-11T06:43:44;94590.97;;;0.41;79.00
15405;BME280;7801;48.124;11.590;2022-12-11T06:46:30;94587.59;;;0.14;79.79
15405;BME280;7801;48.124;11.590;2022-12-11T06:48:57;94581.31;;;0.42;79.84
15405;BME280;7801;48.124;11.590;2022-12-11T06:51:23;94590.53;;;0.22;80.67
15405;BME280;7801;48.124;11.590;2022-12-11T06:53:55;94589.47;;;0.18;81.72
15405;BME280;7801;48.124;11.590;2022-12-11T06:56:22;94586.34;;;0.21;81.60
15405;BME280;7801;48.124;11.590;2022-12-11T06:58:49;94582.94;;;0.21;82.56
15405;BME280;7801;48.124;11.590;2022-12-11T07:01:23;94590.63;;;0.32;81.70
15405;BME280;7801;48.124;11.590;2022-12-11T07:03:51;94580.97;;;0.33;82.40
15405;BME280;7801;48.124;11.590;2022-12-11T07:06:17;94589.59;;;0.33;82.70
15405;BME280;7801;48.124;11.590;2022-12-11T07:08:49;94583.34;;;0.34;82.94
15405;BME280;7801;48.124;11.590;2022-12-11T07:11:27;94587.47;;;0.30;82.72
15405;BME280;7801;48.124;11.590;2022-12-11T07:14:01;94589.34;;;0.08;83.90
15405;BME280;7801;48.124;11.590;2022-12-11T07:16:31;94589.72;;;0.17;84.23
15405;BME280;7801;48.124;11.590;2022-12-11T07:18:58;94594.88;;;0.12;83.45
15405;BME280;7801;48.124;11.590;2022-12-11T07:21:24;94598.69;;;0.04;84.65
15405;BME280;7801;48.124;11.590;2022-12-11T07:23:51;94600.16;;;0.22;83.58
15405;BME280;7801;48.124;11.590;2022-12-11T07:26:20;94603.13;;;0.04;83.67
15405;BME280;7801;48.124;11.590;2022-12-11T07:28:46;94601.97;;;0.16;84.57
15405;BME280;7801;48.124;11.590;2022-12-11T07:31:14;94605.91;;;0.19;83.92
15405;BME280;7801;48.124;11.590;2022-12-11T07:33:43;94613.13;;;0.12;84.75
15405;BME280;7801;48.124;11.590;2022-12-11T07:36:14;94609.66;;;0.33;84.23
15405;BME280;7801;48.124;11.590;2022-12-11T07:38:40;94609.12;;;0.31;83.90
15405;BME280;7801;48.124;11.590;2022-12-11T07:41:09;94609.44;;;0.34;84.19
15405;BME280;7801;48.124;11.590;2022-12-11T07:43:35;94617.34;;;0.18;84.71
15405;BME280;7801;48.124;11.590;2022-12-11T07:46:09;94618.56;;;0.10;85.14
15405;BME280;7801;48.124;11.590;2022-12-11T07:48:38;94613.81;;;0.29;84.73
15405;BME280;7801;48.124;11.590;2022-12-11T07:51:12;94612.34;;;0.43;84.00
15405;BME280;7801;48.124;11.590;2022-12-11T07:53:43;94602.09;;;0.31;84.46
15405;BME280;7801;48.124;11.590;2022-12-11T07:56:11;94607.00;;;0.28;84.86
15405;BME280;7801;48.124;11.590;2022-12-11T07:58:38;94608.75;;;0.17;85.17
15405;BME280;7801;48.124;11.590;2022-12-11T08:01:12;94612.97;;;0.23;84.97
15405;BME280;7801;48.124;11.590;2022-12-11T08:03:47;94603.50;;;0.44;83.95
15405;BME280;7801;48.124;11.590;2022-12-11T08:06:14;94612.31;;;0.11;84.69
15405;BME280;7801;48.124;11.590;2022-12-11T08:08:44;94628.69;;;0.07;85.78
15405;BME280;7801;48.124;11.590;2022-12-11T08:11:13;94616.62;;;0.00;84.80
15405;BME280;7801;48.124;11.590;2022-12-11T08:13:41;94612.19;;;-0.04;85.85
15405;BME280;7801;48.124;11.590;2022-12-11T08:16:09;94619.84;;;0.08;86.04
15405;BME280;7801;48.124;11.590;2022-12-11T08:18:38;94619.75;;;0.24;85.70
15405;BME280;7801;48.124;11.590;2022-12-11T08:21:22;94617.91;;;0.20;85.05
15405;BME280;7801;48.124;11.590;2022-12-11T08:23:53;94611.00;;;0.09;85.05
15405;BME280;7801;48.124;11.590;2022-12-11T08:26:30;94609.00;;;0.16;84.76
15405;BME280;7801;48.124;11.590;2022-12-11T08:28:59;94606.09;;;0.39;83.88
15405;BME280;7801;48.124;11.590;2022-12-11T08:31:27;94613.75;;;0.24;83.35
15405;BME280;7801;48.124;11.590;2022-12-11T08:33:59;94613.81;;;0.29;83.65
15405;BME280;7801;48.124;11.590;2022-12-11T08:36:32;94615.56;;;0.50;83.02
15405;BME280;7801;48.124;11.590;2022-12-11T08:38:59;94615.62;;;0.55;82.50
15405;BME280;7801;48.124;11.590;2022-12-11T08:41:29;94621.56;;;0.51;82.53
15405;BME280;7801;48.124;11.590;2022-12-11T08:43:57;94619.13;;;0.71;81.80
15405;BME280;7801;48.124;11.590;2022-12-11T08:46:32;94626.66;;;0.67;81.17
15405;BME280;7801;48.124;11.590;2022-12-11T08:48:58;94629.94;;;0.53;80.88
15405;BME280;7801;48.124;11.590;2022-12-11T08:51:27;94626.00;;;0.50;81.81
15405;BME280;7801;48.124;11.590;2022-12-11T08:53:59;94633.69;;;0.62;81.68
15405;BME280;7801;48.124;11.590;2022-12-11T08:56:27;94639.34;;;0.86;80.69
15405;BME280;7801;48.124;11.590;2022-12-11T08:58:54;94629.81;;;1.01;80.64
15405;BME280;7801;48.124;11.590;2022-12-11T09:01:24;94640.97;;;0.92;80.46
15405;BME280;7801;48.124;11.590;2022-12-11T09:03:51;94636.88;;;1.01;79.94
15405;BME280;7801;48.124;11.590;2022-12-11T09:06:20;94636.78;;;0.91;79.74
15405;BME280;7801;48.124;11.590;2022-12-11T09:08:47;94641.22;;;0.58;80.58
15405;BME280;7801;48.124;11.590;2022-12-11T09:11:20;94638.56;;;0.26;82.08
15405;BME280;7801;48.124;11.590;2022-12-11T09:13:46;94637.47;;;0.22;81.98
15405;BME280;7801;48.124;11.590;2022-12-11T09:16:15;94634.97;;;0.32;82.19
15405;BME280;7801;48.124;11.590;2022-12-11T09:19:00;94636.78;;;0.32;81.85
15405;BME280;7801;48.124;11.590;2022-12-11T09:21:28;94632.78;;;0.24;80.76
15405;BME280;7801;48.124;11.590;2022-12-11T09:23:59;94635.63;;;0.23;81.39
15405;BME280;7801;48.124;11.590;2022-12-11T09:26:27;94629.78;;;0.11;81.96
15405;BME280;7801;48.124;11.590;2022-12-11T09:28:53;94632.53;;;0.26;80.65
15405;BME280;7801;48.124;11.590;2022-12-11T09:31:35;94631.53;;;0.05;80.95
15405;BME280;7801;48.124;11.590;2022-12-11T09:34:26;94622.22;;;0.09;80.77
15405;BME280;7801;48.124;11.590;2022-12-11T09:36:53;94633.63;;;0.30;80.09
15405;BME280;7801;48.124;11.590;2022-12-11T09:39:20;94627.63;;;0.29;79.45
15405;BME280;7801;48.124;11.590;2022-12-11T09:42:13;94628.41;;;0.30;78.60
15405;BME280;7801;48.124;11.590;2022-12-11T09:44:45;94635.84;;;0.43;79.35
15405;BME280;7801;48.124;11.590;2022-12-11T09:47:25;94628.34;;;0.20;79.56
15405;BME280;7801;48.124;11.590;2022-12-11T09:55:21;94626.59;;;0.30;78.96
15405;BME280;7801;48.124;11.590;2022-12-11T10:00:53;94621.41;;;0.09;79.80
15405;BME280;7801;48.124;11.590;2022-12-11T10:04:11;94615.25;;;0.15;79.02
15405;BME280;7801;48.124;11.590;2022-12-11T10:18:18;94602.44;;;0.13;78.93
15405;BME280;7801;48.124;11.590;2022-12-11T10:20:49;94595.84;;;0.06;79.60
15405;BME280;7801;48.124;11.590;2022-12-11T10:23:20;94594.56;;;0.08;78.68
15405;BME280;7801;48.124;11.590;2022-12-11T10:26:08;94590.13;;;0.09;78.18
15405;BME280;7801;48.124;11.590;2022-12-11T10:28:36;94594.53;;;-0.19;78.51
15405;BME280;7801;48.124;11.590;2022-12-11T10:34:11;94583.63;;;-0.16;78.72
15405;BME280;7801;48.124;11.590;2022-12-11T10:36:40;94587.66;;;0.19;77.44
15405;BME280;7801;48.124;11.590;2022-12-11T10:39:19;94589.09;;;0.10;78.44
15405;BME280;7801;48.124;11.590;2022-12-11T10:41:49;94583.34;;;0.08;77.95
15405;BME280;7801;48.124;11.590;2022-12-11T10:47:18;94584.19;;;0.13;78.56
15405;BME280;7801;48.124;11.590;2022-12-11T10:49:58;94582.44;;;0.19;77.90
15405;BME280;7801;48.124;11.590;2022-12-11T10:52:34;94579.03;;;0.18;78.64
15405;BME280;7801;48.124;11.590;2022-12-11T10:55:43;94569.41;;;0.19;78.60
15405;BME280;7801;48.124;11.590;2022-12-11T10:58:21;94573.59;;;0.25;79.00
15405;BME280;7801;48.124;11.590;2022-12-11T11:06:21;94561.75;;;0.12;79.03
15405;BME280;7801;48.124;11.590;2022-12-11T11:08:49;94556.09;;;0.20;78.63
15405;BME280;7801;48.124;11.590;2022-12-11T11:11:36;94554.31;;;0.26;77.93
15405;BME280;7801;48.124;11.590;2022-12-11T11:14:20;94554.25;;;0.16;78.78
15405;BME280;7801;48.124;11.590;2022-12-11T11:16:54;94546.13;;;0.12;78.04
15405;BME280;7801;48.124;11.590;2022-12-11T11:19:35;94549.63;;;0.28;78.38
15405;BME280;7801;48.124;11.590;2022-12-11T11:22:17;94537.59;;;0.22;77.75
15405;BME280;7801;48.124;11.590;2022-12-11T11:24:46;94536.09;;;0.31;77.87
15405;BME280;7801;48.124;11.590;2022-12-11T11:27:41;94523.75;;;0.53;77.25
15405;BME280;7801;48.124;11.590;2022-12-11T11:30:26;94519.09;;;0.55;77.60
15405;BME280;7801;48.124;11.590;2022-12-11T11:33:03;94518.94;;;0.35;76.85
15405;BME280;7801;48.124;11.590;2022-12-11T11:35:31;94515.53;;;0.34;76.43
15405;BME280;7801;48.124;11.590;2022-12-11T11:40:40;94515.94;;;0.53;77.56
15405;BME280;7801;48.124;11.590;2022-12-11T11:51:59;94509.12;;;0.15;76.46
15405;BME280;7801;48.124;11.590;2022-12-11T11:54:50;94509.81;;;0.06;76.27
15405;BME280;7801;48.124;11.590;2022-12-11T12:00:29;94504.69;;;0.16;75.64
15405;BME280;7801;48.124;11.590;2022-12-11T12:03:08;94507.88;;;0.23;76.22
15405;BME280;7801;48.124;11.590;2022-12-11T12:09:16;94507.69;;;0.03;76.51
15405;BME280;7801;48.124;11.590;2022-12-11T12:18:19;94502.28;;;-0.18;76.39
15405;BME280;7801;48.124;11.590;2022-12-11T12:21:34;94500.03;;;-0.09;75.89
15405;BME280;7801;48.124;11.590;2022-12-11T12:24:34;94499.38;;;0.06;75.84
15405;BME280;7801;48.124;11.590;2022-12-11T12:30:07;94499.97;;;0.13;74.73
15405;BME280;7801;48.124;11.590;2022-12-11T12:36:17;94502.03;;;0.11;74.83
15405;BME280;7801;48.124;11.590;2022-12-11T12:45:10;94501.06;;;0.22;74.36
15405;BME280;7801;48.124;11.590;2022-12-11T12:47:46;94496.25;;;0.36;75.36
15405;BME280;7801;48.124;11.590;2022-12-11T12:50:20;94488.53;;;0.51;73.97
15405;BME280;7801;48.124;11.590;2022-12-11T12:52:52;94499.41;;;0.43;74.51
15405;BME280;7801;48.124;11.590;2022-12-11T12:55:40;94488.81;;;0.54;74.37
15405;BME280;7801;48.124;11.590;2022-12-11T12:58:41;94495.75;;;0.39;74.69
15405;BME280;7801;48.124;11.590;2022-12-11T13:01:23;94490.09;;;0.15;76.14
15405;BME280;7801;48.124;11.590;2022-12-11T13:04:06;94486.41;;;0.11;76.41
15405;BME280;7801;48.124;11.590;2022-12-11T13:06:43;94492.91;;;0.45;76.09
15405;BME280;7801;48.124;11.590;2022-12-11T13:09:21;94488.72;;;0.39;75.75
15405;BME280;7801;48.124;11.590;2022-12-11T13:11:51;94484.53;;;0.38;75.11
15405;BME280;7801;48.124;11.590;2022-12-11T13:14:30;94485.16;;;0.18;75.03
15405;BME280;7801;48.124;11.590;2022-12-11T13:17:33;94483.84;;;0.21;74.61
15405;BME280;7801;48.124;11.590;2022-12-11T13:20:17;94492.75;;;0.20;74.33
15405;BME280;7801;48.124;11.590;2022-12-11T13:23:13;94486.38;;;0.43;74.24
15405;BME280;7801;48.124;11.590;2022-12-11T13:25:49;94481.97;;;0.11;74.92
15405;BME280;7801;48.124;11.590;2022-12-11T13:31:25;94486.66;;;0.46;74.88
15405;BME280;7801;48.124;11.590;2022-12-11T13:33:55;94487.16;;;0.43;74.41
15405;BME280;7801;48.124;11.590;2022-12-11T13:36:28;94486.88;;;0.40;75.82
15405;BME280;7801;48.124;11.590;2022-12-11T13:39:02;94491.09;;;0.46;74.97
15405;BME280;7801;48.124;11.590;2022-12-11T13:41:35;94494.34;;;0.26;74.80
15405;BME280;7801;48.124;11.590;2022-12-11T13:44:02;94495.91;;;0.27;75.08
15405;BME280;7801;48.124;11.590;2022-12-11T13:46:34;94491.97;;;0.19;74.73
15405;BME280;7801;48.124;11.590;2022-12-11T13:49:03;94492.75;;;0.20;74.58
15405;BME280;7801;48.124;11.590;2022-12-11T13:51:35;94491.19;;;0.24;74.83
15405;BME280;7801;48.124;11.590;2022-12-11T13:54:33;94487.19;;;0.48;74.34
15405;BME280;7801;48.124;11.590;2022-12-11T13:57:00;94487.16;;;0.43;74.27
15405;BME280;7801;48.124;11.590;2022-12-11T13:59:37;94492.56;;;0.31;74.69
15405;BME280;7801;48.124;11.590;2022-12-11T14:05:06;94490.91;;;0.57;74.52
15405;BME280;7801;48.124;11.590;2022-12-11T14:07:47;94488.97;;;0.43;73.94
15405;BME280;7801;48.124;11.590;2022-12-11T14:10:20;94485.38;;;0.49;72.11
15405;BME280;7801;48.124;11.590;2022-12-11T14:13:06;94484.03;;;0.46;72.33
15405;BME280;7801;48.124;11.590;2022-12-11T14:15:43;94496.34;;;0.14;72.40
15405;BME280;7801;48.124;11.590;2022-12-11T14:18:21;94491.16;;;0.19;72.96
15405;BME280;7801;48.124;11.590;2022-12-11T14:21:01;94491.22;;;0.29;72.56
15405;BME280;7801;48.124;11.590;2022-12-11T14:23:30;94495.38;;;0.25;72.79
15405;BME280;7801;48.124;11.590;2022-12-11T14:26:00;94496.19;;;0.30;72.81
15405;BME280;7801;48.124;11.590;2022-12-11T14:28:34;94501.44;;;0.04;73.78
15405;BME280;7801;48.124;11.590;2022-12-11T14:31:03;94495.84;;;0.22;73.62
15405;BME280;7801;48.124;11.590;2022-12-11T14:33:34;94493.09;;;0.33;73.34
15405;BME280;7801;48.124;11.590;2022-12-11T14:36:04;94495.50;;;0.40;72.86
15405;BME280;7801;48.124;11.590;2022-12-11T14:38:42;94493.97;;;0.12;73.75
15405;BME280;7801;48.124;11.590;2022-12-11T14:41:23;94499.06;;;-0.03;74.87
15405;BME280;7801;48.124;11.590;2022-12-11T14:44:11;94494.66;;;0.03;74.89
15405;BME280;7801;48.124;11.590;2022-12-11T14:47:01;94499.59;;;-0.01;75.59
15405;BME280;7801;48.124;11.590;2022-12-11T14:49:50;94499.78;;;0.19;75.09
15405;BME280;7801;48.124;11.590;2022-12-11T14:52:27;94505.09;;;0.03;76.24
15405;BME280;7801;48.124;11.590;2022-12-11T14:55:13;94511.63;;;0.05;75.24
15405;BME280;7801;48.124;11.590;2022-12-11T14:57:46;94507.44;;;0.04;76.11
15405;BME280;7801;48.124;11.590;2022-12-11T15:00:38;94512.84;;;-0.08;75.44
15405;BME280;7801;48.124;11.590;2022-12-11T15:03:23;94509.44;;;-0.08;75.14
15405;BME280;7801;48.124;11.590;2022-12-11T15:05:52;94498.16;;;0.13;74.87
15405;BME280;7801;48.124;11.590;2022-12-11T15:08:31;94506.37;;;0.32;74.18
15405;BME280;7801;48.124;11.590;2022-12-11T15:11:08;94499.09;;;0.34;74.06
15405;BME280;7801;48.124;11.590;2022-12-11T15:13:38;94497.91;;;0.15;75.20